Tiempo atmosférico en la estación meteorológica de Cervera De Pisuerga, Palencia (1140 m.)



Fecha
DESCASC
Temp. máxima en grados centígrados (hora)
DESCASC
Temp. mínima en grados centígrados (hora)
DESCASC
Temp. media en grados centígrados
DESCASC
Racha de viento máxima en m/sg (hora)
DESCASC
Velocidad máxima media en intervalos de 10 minutos(hora)
DESCASC
Precipitaciones diarias en mm
DESCASC
Precipitaciones de 00:00 a 06:00 en mm
DESCASC
Precipitaciones de 06:00 a 12:00 en mm
DESCASC
Precipitaciones de 12:00 a 18:00 en mm
DESCASC
Precipitaciones de 18:00 a 24:00 en mm
DESCASC
18-08-2019 26.2 (14:30) 11.4 (22:50) 18.8 12.5 (15:50) 5.83 (15:50) 0 0 0 0 0
17-08-2019 30.4 (17:10) 12.8 (07:30) 21.6 11.39 (15:30) 5.28 (17:30) 0 0 0 0 0
16-08-2019 30.6 (18:10) 10.2 (07:00) 20.4 9.72 (15:40) 4.17 (14:40) 0 0 0 0 0
15-08-2019 24.3 (15:40) 10.6 (00:00) 17.4 7.22 (14:10) 4.17 (14:10) 0 0 0 0 0
14-08-2019 26.8 (14:40) 9 (00:00) 17.9 6.94 (06:10) 3.61 (03:10) 0 0 0 0 0
13-08-2019 22.5 (16:40) 5.1 (00:00) 13.8 6.67 (18:20) 3.89 (05:30) 0 0 0 0 0
12-08-2019 18.5 (16:10) 4.8 (00:00) 11.7 8.06 (17:50) 4.17 (03:00) 0 0 0 0 0
11-08-2019 16.9 (15:10) 8.6 (00:00) 12.8 8.89 (21:20) 4.17 (21:20) 24.2 5 0.8 15.2 3.2
10-08-2019 25.5 (16:00) 9.7 (00:00) 17.6 10.56 (18:00) 4.44 (18:00) 0 0 0 0 0
09-08-2019 24.5 (15:20) 15.1 (00:00) 19.8 18.33 (10:40) 9.44 (10:40) 3 0 3 0 0
08-08-2019 25.4 (16:40) 14.4 (00:00) 19.9 15.28 (22:30) 7.5 (20:10) 0.6 0 0.6 0 0
07-08-2019 -- (--) -- (--) -- 11.94 (16:50) 5.28 (17:20) 0 0 0 0 0
06-08-2019 -- (--) -- (--) -- 8.06 (16:50) 4.17 (16:00) 0 0 0 0 0
05-08-2019 -- (--) -- (--) -- 9.44 (16:40) 4.72 (15:10) 0 0 0 0 0
04-08-2019 -- (--) -- (--) -- 9.72 (16:30) 5 (16:10) 0 0 0 0 0
03-08-2019 -- (--) -- (--) -- 8.33 (14:50) 4.44 (23:40) 0 0 0 0 0
02-08-2019 -- (--) -- (--) -- 6.67 (14:30) 4.72 (23:40) 0 0 0 0 0
01-08-2019 -- (--) -- (--) -- 8.06 (21:20) 3.89 (17:00) 2.2 0 0 2 0.2
31-07-2019 -- (--) -- (--) -- 7.78 (14:50) 4.72 (15:00) 0 0 0 0 0
30-07-2019 -- (--) -- (--) -- 7.78 (16:50) 4.17 (16:20) 0 0 0 0 0
29-07-2019 -- (--) -- (--) -- 11.39 (15:00) 5 (16:20) 0 0 0 0 0
28-07-2019 -- (--) -- (--) -- 10.83 (16:00) 5.56 (14:10) 0 0 0 0 0
27-07-2019 -- (--) -- (--) -- 8.61 (21:30) 3.61 (22:40) 22.2 9 8 5.2 0
26-07-2019 -- (--) -- (--) -- 7.78 (15:40) 4.17 (15:30) 2.8 0 2.4 0.4 0
25-07-2019 -- (--) -- (--) -- 14.44 (13:30) 7.78 (14:10) 0 0 0 0 0
24-07-2019 -- (--) -- (--) -- 15.28 (16:10) 6.94 (16:00) 0 0 0 0 0
23-07-2019 -- (--) -- (--) -- 13.89 (09:20) 7.22 (14:20) 0.2 0 0.2 0 0
22-07-2019 -- (--) -- (--) -- 18.89 (21:20) 9.72 (21:20) 10.4 0 0 0 10.4

Gráficas

Temp. máximas Temp. mínimas Temp. medias Precipitaciones Rachas de viento máximas Velocidades máximas media en intervalos de 10 minutos

Datos horarios

Fecha y hora oficial Temperatura (ºC) Velocidad del viento (km/h) Dirección del viento Racha (km/h) Dirección de racha Precipitación (mm) Presión (hPa) Tendencia (hPa) Humedad (%)
2019-08-20 23:00:00 10.5 7 Norte 22 Noroeste 0 895.1 0.8 79
2019-08-20 22:00:00 10.8 5 Nordeste 27 Norte 0 894.7 0.4 78
2019-08-20 21:00:00 12.6 15 Noroeste 30 Norte 0 894.4 0.3 67
2019-08-20 20:00:00 15.5 10 Norte 25 Norte 0 894.3 0 59
2019-08-20 19:00:00 17.7 11 Noroeste 27 Noroeste 0 894.3 -0.4 53
2019-08-20 18:00:00 17.2 10 Noroeste 24 Norte 0 894.1 -0.8 56
2019-08-20 17:00:00 18.3 15 Noroeste 27 Norte 0 894.3 -0.6 54
2019-08-20 16:00:00 17.5 13 Noroeste 27 Norte 0 894.7 -0.2 54
2019-08-20 15:00:00 17.9 12 Norte 26 Norte 0 894.9 0.4 56
2019-08-20 14:00:00 15.7 11 Noroeste 32 Norte 0 894.9 0.7 61
2019-08-20 13:00:00 16 12 Norte 29 Nordeste 0 894.9 1.4 62
2019-08-20 12:00:00 15.8 10 Norte 28 Noroeste 0 894.5 1.4 67
2019-08-20 11:00:00 13.7 10 Norte 28 Nordeste 0 894.2 1.4 70
2019-08-20 10:00:00 12.2 14 Noroeste 36 Norte 0 893.5 1.5 74
2019-08-20 09:00:00 10.8 10 Noroeste 32 Noroeste 0 893.1 1.5 80
2019-08-20 08:00:00 9.8 13 Noroeste 31 Oeste 0 892.8 1.2 86
2019-08-20 07:00:00 9.7 8 Noroeste 28 Noroeste 0 892 0.1 86
2019-08-20 06:00:00 10 6 Noroeste 26 Oeste 0 891.6 -0.3 86
2019-08-20 05:00:00 9.7 7 Noroeste 24 Oeste 0 891.6 -0.6 87
2019-08-20 04:00:00 10.3 6 Noroeste 20 Oeste 0 891.9 -0.4 85
2019-08-20 03:00:00 10.8 6 Noroeste 24 Oeste 0 891.9 -0.1 84
2019-08-20 02:00:00 10.8 6 Noroeste 24 Noroeste 0 892.2 -0.2 84
2019-08-20 01:00:00 10.9 10 Noroeste 30 Norte 0 892.3 0.5 83
2019-08-20 00:00:00 10.6 9 Noroeste 27 Noroeste 0 892 0.6 84
2019-08-19 23:00:00 10.7 6 Noroeste 23 Oeste 0 892.4 1.4 83
2019-08-19 22:00:00 11 7 Norte 25 Oeste 0 891.8 0.9 83
2019-08-19 21:00:00 11.5 10 Noroeste 30 Noroeste 0 891.4 0.7 79
2019-08-19 20:00:00 13 12 Noroeste 28 Norte 0 891 0.4 74
2019-08-19 19:00:00 13.8 15 Noroeste 30 Norte 0 890.9 0.1 75
2019-08-19 18:00:00 14.9 13 Noroeste 29 Norte 0 890.7 -0.3 69
2019-08-19 17:00:00 16.5 15 Noroeste 29 Norte 0 890.6 -0.4 65
2019-08-19 16:00:00 17.8 11 Noroeste 24 Norte 0 890.8 -0.1 58
2019-08-19 15:00:00 17.1 11 Norte 26 Norte 0 891 0.2 61
2019-08-19 14:00:00 18 10 Norte 21 Noroeste 0 891 0.2 60
2019-08-19 13:00:00 15.9 10 Norte 21 Norte 0 890.9 0.4 64
2019-08-19 12:00:00 16.6 6 Norte 22 Nordeste 0 890.8 0.3 62
2019-08-19 11:00:00 13.9 11 Noroeste 26 Oeste 0 890.8 0.4 71
2019-08-19 10:00:00 12.4 9 Norte 23 Noroeste 0 890.5 0.3 78
2019-08-19 09:00:00 11 5 Norte 21 Noroeste 0 890.5 0.3 82
2019-08-19 08:00:00 10.1 6 Noroeste 22 Oeste 0 890.4 0.1 84
2019-08-19 07:00:00 9.8 5 Oeste 24 Oeste 0 890.2 0.1 86
2019-08-19 06:00:00 9.9 5 Oeste 19 Oeste 0 890.2 -0.2 88
2019-08-19 05:00:00 10 5 Noroeste 19 Oeste 0 890.3 -0.2 89
2019-08-19 04:00:00 9.8 5 Norte 16 Oeste 0 890.1 -0.4 88
2019-08-19 03:00:00 9.7 5 Noroeste 16 Oeste 0 890.4 0 88
2019-08-19 02:00:00 10.8 6 Norte 21 Norte 0 890.5 0.5 87
2019-08-19 01:00:00 10.4 8 Norte 16 Noroeste 0 890.5 1.4 88
2019-08-19 00:00:00 11.5 6 Norte 19 Norte 0 890.4 1.8 85
2019-08-18 23:00:00 11.4 7 Norte 21 Noroeste 0 890 1.8 87
2019-08-18 22:00:00 12 10 Noroeste 24 Norte 0 889.1 1.1 86
2019-08-18 21:00:00 13.3 10 Norte 24 Norte 0 888.6 0.7 83
2019-08-18 20:00:00 15.7 6 Norte 21 Nordeste 0 888.2 0.7 79
2019-08-18 19:00:00 14.9 13 Noroeste 22 Norte 0 888 1.3 80
2019-08-18 18:00:00 16.8 9 Noroeste 19 Noroeste 0 887.9 1.5 78
2019-08-18 17:00:00 19 11 Norte 24 Norte 0 887.5 0.5 68
2019-08-18 16:00:00 22.9 18 Sudoeste 45 Sur 0 886.7 -0.4 55
2019-08-18 15:00:00 23.5 15 Sur 27 Sur 0 886.4 -0.8 54
2019-08-18 14:00:00 25 15 Sur 32 Sur 0 887 0.2 47
2019-08-18 13:00:00 22.8 16 Sur 26 Sur 0 887.1 0.9 50
2019-08-18 12:00:00 20.3 13 Sur 21 Sur 0 887.2 1.3 52
2019-08-18 11:00:00 18.5 8 Sur 17 Sur 0 886.8 1 63
2019-08-18 10:00:00 16.2 6 Sudeste 13 Nordeste 0 886.2 1 68
2019-08-18 09:00:00 12.5 4 Norte 12 Noroeste 0 885.9 0.9 66
2019-08-18 08:00:00 13.6 4 Oeste 14 Oeste 0 885.8 0.5 53
2019-08-18 07:00:00 13.1 8 Oeste 19 Oeste 0 885.2 -0.4 55
2019-08-18 06:00:00 13.8 10 Noroeste 18 Oeste 0 885 -1.1 55
2019-08-18 05:00:00 14.4 6 Noroeste 20 Sur 0 885.3 -0.9 58
2019-08-18 04:00:00 14.6 9 Oeste 20 Sur 0 885.6 -1 66
2019-08-18 03:00:00 14.1 6 Norte 23 Oeste 0 886.1 -0.6 71
2019-08-18 02:00:00 16 11 Noroeste 20 Oeste 0 886.2 -0.5 64
2019-08-18 01:00:00 15.6 8 Norte 17 Oeste 0 886.6 0 75
2019-08-18 00:00:00 17.1 9 Sudeste 18 Sudoeste 0 886.7 0.2 63
2019-08-17 23:00:00 19.1 2 Oeste 22 Oeste 0 886.7 0 53
2019-08-17 22:00:00 21.3 4 Sudoeste 20 Sudoeste 0 886.6 -0.4 45
2019-08-17 21:00:00 25.1 3 Sudoeste 24 Oeste 0 886.5 -0.8 37
2019-08-17 20:00:00 27.8 14 Sudoeste 35 Sudoeste 0 886.7 -0.9 29
2019-08-17 19:00:00 29.4 17 Sudoeste 35 Sur 0 887 -1 27
2019-08-17 18:00:00 29.3 12 Sudoeste 34 Sur 0 887.3 -1.2 26
2019-08-17 17:00:00 30.3 11 Sudoeste 33 Sudoeste 0 887.6 -1.4 29
2019-08-17 16:00:00 30.2 16 Sudoeste 41 Sudoeste 0 888 -1.4 29
2019-08-17 15:00:00 29.7 10 Sudoeste 34 Sur 0 888.5 -1.3 31
2019-08-17 14:00:00 27.7 9 Sudoeste 29 Sudoeste 0 889 -1.1 36
2019-08-17 13:00:00 26.7 16 Sur 31 Sur 0 889.4 -0.6 40
2019-08-17 12:00:00 23.3 10 Este 20 Sur 0 889.8 0.1 51
2019-08-17 11:00:00 19.5 8 Este 17 Sur 0 890.1 0.6 61
2019-08-17 10:00:00 17 3 Sur 15 Noroeste 0 890 0.6 76
2019-08-17 09:00:00 14.7 6 Noroeste 14 Noroeste 0 889.7 0.3 73
2019-08-17 08:00:00 13 8 Noroeste 25 Oeste 0 889.5 -0.1 80
2019-08-17 07:00:00 13.4 8 Noroeste 19 Noroeste 0 889.4 -0.7 80
2019-08-17 06:00:00 13.9 8 Noroeste 18 Noroeste 0 889.4 -0.8 80
2019-08-17 05:00:00 14.2 8 Noroeste 19 Oeste 0 889.6 -0.9 79
2019-08-17 04:00:00 13.9 9 Noroeste 22 Noroeste 0 890.1 -0.6 83
2019-08-17 03:00:00 14.9 11 Noroeste 21 Oeste 0 890.2 -0.2 85
2019-08-17 02:00:00 14.2 7 Noroeste 17 Oeste 0 890.5 0 89
2019-08-17 01:00:00 14.7 11 Oeste 19 Oeste 0 890.7 0.6 87
2019-08-17 00:00:00 15.7 11 Noroeste 20 Oeste 0 890.4 0.7 82
2019-08-16 23:00:00 16.8 7 Sudoeste 18 Oeste 0 890.5 1.3 79
2019-08-16 22:00:00 18.8 3 Norte 20 Oeste 0 890.1 0.9 71
2019-08-16 21:00:00 20.8 3 Oeste 17 Sudoeste 0 889.7 0.2 63
2019-08-16 20:00:00 26.3 5 Nordeste 18 Oeste 0 889.2 -0.5 46
2019-08-16 19:00:00 30.2 6 Sudoeste 33 Sur 0 889.2 -0.9 26
2019-08-16 18:00:00 30.3 9 Sudoeste 27 Oeste 0 889.5 -0.8 26
2019-08-16 17:00:00 29.6 8 Oeste 30 Oeste 0 889.7 -1 28
2019-08-16 16:00:00 29.4 12 Sudoeste 35 Sur 0 890.1 -0.8 30
2019-08-16 15:00:00 29.6 7 Sudoeste 35 Sur 0 890.3 -0.9 34
2019-08-16 14:00:00 27.3 14 Sudoeste 31 Sur 0 890.7 -0.8 35
2019-08-16 13:00:00 25.9 7 Sudoeste 23 Sur 0 890.9 -0.7 42
2019-08-16 12:00:00 22.5 4 Este 18 Sudoeste 0 891.2 -0.6 61
2019-08-16 11:00:00 18.5 6 Sur 17 Sudoeste 0 891.5 -0.4 77
2019-08-16 10:00:00 15.2 2 Oeste 9 Noroeste 0 891.6 -0.1 81
2019-08-16 09:00:00 12.9 4 Noroeste 19 Oeste 0 891.8 0.1 92
2019-08-16 08:00:00 10.7 4 Noroeste 18 Oeste 0 891.9 0 95
2019-08-16 07:00:00 10.3 3 Oeste 9 Oeste 0 891.7 -0.6 94
2019-08-16 06:00:00 11.4 3 Nordeste 11 Oeste 0 891.7 -0.9 93
2019-08-16 05:00:00 11.6 5 Noroeste 20 Oeste 0 891.9 -1.1 95
2019-08-16 04:00:00 10.8 9 Noroeste 21 Oeste 0 892.3 -1 95
2019-08-16 03:00:00 11.8 0 Calma 12 Oeste 0 892.6 -1 95
2019-08-16 02:00:00 11.9 4 Noroeste 6 Noroeste 0 893 -0.7 94
2019-08-16 01:00:00 12.3 3 Nordeste 9 Este 0 893.3 0 92
2019-08-16 00:00:00 13.5 3 Oeste 17 Oeste 0 893.6 0.4 87
2019-08-15 23:00:00 14.7 7 Noroeste 17 Oeste 0 893.7 0.6 87
2019-08-15 22:00:00 14.6 8 Oeste 13 Sur 0 893.3 0.2 82
2019-08-15 21:00:00 18.1 6 Sudeste 15 Sur 0 893.2 0.1 68
2019-08-15 20:00:00 21.4 11 Sudeste 20 Sudeste 0 893.1 0 55
2019-08-15 19:00:00 22.3 13 Sudeste 23 Sudeste 0 893.1 -0.3 55
2019-08-15 18:00:00 23.4 13 Este 24 Sudeste 0 893.1 -0.4 54
2019-08-15 17:00:00 23.9 13 Sudeste 26 Sudeste 0 893.1 -0.6 54
2019-08-15 16:00:00 23.9 12 Sudeste 24 Sudeste 0 893.4 -0.6 53
2019-08-15 15:00:00 23.7 12 Sudeste 26 Sur 0 893.5 -0.5 56
2019-08-15 14:00:00 22.5 12 Sudeste 24 Este 0 893.7 -0.4 55
2019-08-15 13:00:00 21.2 11 Sudeste 19 Sur 0 894 0 60
2019-08-15 12:00:00 18.4 9 Sudeste 18 Sur 0 894 0.2 72
2019-08-15 11:00:00 15.5 8 Este 17 Sudeste 0 894.1 0.5 82
2019-08-15 10:00:00 13.6 4 Este 12 Este 0 894 0.7 91
2019-08-15 09:00:00 12.2 2 Noroeste 17 Oeste 0 893.8 0.9 92
2019-08-15 08:00:00 10.9 3 Noroeste 17 Oeste 0 893.6 0.6 91
2019-08-15 07:00:00 11.6 5 Noroeste 13 Oeste 0 893.3 0.3 92
2019-08-15 06:00:00 12.3 4 Noroeste 9 Noroeste 0 892.9 -0.1 94
2019-08-15 05:00:00 11.9 6 Noroeste 20 Oeste 0 893 -0.5 95
2019-08-15 04:00:00 12.1 2 Oeste 15 Oeste 0 893 -0.2 94
2019-08-15 03:00:00 12.6 5 Noroeste 15 Oeste 0 893 -0.4 93
2019-08-15 02:00:00 13.2 4 Noroeste 14 Noroeste 0 893.5 0.5 92
2019-08-15 01:00:00 14.1 5 Noroeste 18 Oeste 0 893.2 0.7 89
2019-08-15 00:00:00 14.4 7 Oeste 17 Oeste 0 893.4 1.4 88
2019-08-14 23:00:00 15.5 10 Noroeste 19 Noroeste 0 893 1.2 82
2019-08-14 22:00:00 17.2 10 Norte 20 Oeste 0 892.5 0.7 76
2019-08-14 21:00:00 19.2 9 Sudoeste 19 Oeste 0 892 -0.1 69
2019-08-14 20:00:00 20.7 9 Norte 21 Norte 0 891.8 -0.2 63
2019-08-14 19:00:00 23.6 11 Norte 20 Norte 0 891.8 -0.5 54
2019-08-14 18:00:00 25 9 Norte 24 Norte 0 892.1 -0.3 52
2019-08-14 17:00:00 25.3 4 Nordeste 12 Este 0 892 -0.6 46
2019-08-14 16:00:00 25.9 3 Nordeste 13 Sudeste 0 892.3 -0.5 40
2019-08-14 15:00:00 26.5 9 Sudeste 23 Sur 0 892.4 -0.5 40
2019-08-14 14:00:00 25.6 6 Este 23 Sur 0 892.6 -0.3 43
2019-08-14 13:00:00 23.7 8 Este 19 Oeste 0 892.8 -0.1 45
2019-08-14 12:00:00 20.1 8 Sudeste 15 Sur 0 892.9 0.2 58
2019-08-14 11:00:00 16.4 3 Sudeste 13 Oeste 0 892.9 0.6 69
2019-08-14 10:00:00 13.9 0 Calma 20 Oeste 0 892.9 0.7 67
2019-08-14 09:00:00 11.1 4 Norte 19 Oeste 0 892.7 0.5 82
2019-08-14 08:00:00 10.5 6 Noroeste 20 Oeste 0 892.3 -0.2 81
2019-08-14 07:00:00 9.7 8 Oeste 25 Noroeste 0 892.2 -0.8 87
2019-08-14 06:00:00 9.5 12 Oeste 24 Oeste 0 892.2 -1 85
2019-08-14 05:00:00 10.1 9 Noroeste 24 Oeste 0 892.5 -0.8 88
2019-08-14 04:00:00 9.8 8 Noroeste 24 Oeste 0 893 -0.5 90
2019-08-14 03:00:00 9.9 8 Oeste 20 Oeste 0 893.2 -0.2 88
2019-08-14 02:00:00 10.6 5 Noroeste 18 Oeste 0 893.3 -0.1 89
2019-08-14 01:00:00 11.2 4 Noroeste 9 Oeste 0 893.5 0.5 86
2019-08-14 00:00:00 11.9 4 Noroeste 12 Noroeste 0 893.4 0.7 87
2019-08-13 23:00:00 12.6 4 Noroeste 14 Noroeste 0 893.4 1.1 83
2019-08-13 22:00:00 13.3 5 Nordeste 14 Sur 0 893 0.9 76
2019-08-13 21:00:00 16.8 10 Sur 18 Sur 0 892.7 0.5 63
2019-08-13 20:00:00 19.8 11 Sur 20 Sur 0 892.3 -0.2 51
2019-08-13 19:00:00 21.6 11 Este 24 Este 0 892.1 -0.8 46
2019-08-13 18:00:00 21.9 12 Sudeste 23 Sudeste 0 892.2 -1 44
2019-08-13 17:00:00 21.7 11 Sudeste 23 Sur 0 892.5 -1 43
2019-08-13 16:00:00 21.7 9 Sudeste 18 Sur 0 892.9 -0.7 44
2019-08-13 15:00:00 20.6 8 Sudeste 19 Sur 0 893.2 -0.7 44
2019-08-13 14:00:00 19 10 Sudeste 22 Sur 0 893.5 -0.5 48
2019-08-13 13:00:00 17.2 7 Este 14 Este 0 893.6 -0.3 51
2019-08-13 12:00:00 14.1 6 Este 21 Sur 0 893.9 0 60
2019-08-13 11:00:00 11.8 8 Sudeste 18 Sudoeste 0 894 0.3 74
2019-08-13 10:00:00 9.2 7 Sudeste 18 Nordeste 0 893.9 0.5 84
2019-08-13 09:00:00 7.2 10 Noroeste 19 Oeste 0 893.9 0.7 92
2019-08-13 08:00:00 5.2 9 Oeste 20 Oeste 0 893.7 0.2 93
2019-08-13 07:00:00 5.5 14 Oeste 19 Norte 0 893.4 -0.5 92
2019-08-13 06:00:00 5.6 7 Oeste 22 Noroeste 0 893.2 -0.9 90
2019-08-13 05:00:00 6.9 11 Noroeste 21 Oeste 0 893.5 -1.2 90
2019-08-13 04:00:00 7.1 14 Oeste 18 Oeste 0 893.9 -1.1 92
2019-08-13 03:00:00 7.1 5 Sudoeste 17 Oeste 0 894.1 -1.1 90
2019-08-13 02:00:00 8 4 Noroeste 16 Oeste 0 894.7 -0.3 86
2019-08-13 01:00:00 8.7 5 Norte 23 Oeste 0 895 1 85
2019-08-13 00:00:00 9.3 7 Noroeste 24 Oeste 0 895.2 1.9 85
2019-08-12 23:00:00 9.5 10 Norte 26 Norte 0 895 1.8 85
2019-08-12 22:00:00 10 9 Norte 21 Noroeste 0 894 1 83
2019-08-12 21:00:00 10.7 9 Norte 24 Norte 0 893.3 0.5 78
2019-08-12 20:00:00 11.8 9 Norte 27 Norte 0 893.2 0.2 74
2019-08-12 19:00:00 13.8 8 Norte 26 Norte 0 893 -0.3 68
2019-08-12 18:00:00 16.2 10 Noroeste 29 Noroeste 0 892.8 -0.8 59
2019-08-12 17:00:00 15.6 10 Norte 26 Norte 0 893 -0.6 60
2019-08-12 16:00:00 17.4 9 Norte 26 Norte 0 893.3 -0.3 56
2019-08-12 15:00:00 17.9 9 Norte 26 Nordeste 0 893.6 0 52
2019-08-12 14:00:00 16.2 8 Norte 21 Nordeste 0 893.6 0.4 53
2019-08-12 13:00:00 17.1 5 Nordeste 20 Nordeste 0 893.6 0.8 51
2019-08-12 12:00:00 14.1 5 Nordeste 19 Sur 0 893.6 1.1 63
2019-08-12 11:00:00 11.6 3 Nordeste 19 Sur 0 893.2 1.3 73
2019-08-12 10:00:00 9.1 6 Noroeste 23 Noroeste 0 892.8 1.4 80
2019-08-12 09:00:00 6.6 14 Oeste 22 Noroeste 0 892.5 1.2 87
2019-08-12 08:00:00 4.9 8 Oeste 20 Noroeste 0 891.9 0.4 92
2019-08-12 07:00:00 5.6 13 Noroeste 20 Oeste 0 891.4 -0.1 91
2019-08-12 06:00:00 5.6 10 Noroeste 20 Oeste 0 891.3 -0.5 92
2019-08-12 05:00:00 5.9 12 Noroeste 21 Oeste 0 891.5 -0.5 93
2019-08-12 04:00:00 6 12 Oeste 22 Noroeste 0 891.5 -0.6 93
2019-08-12 03:00:00 6.7 15 Oeste 21 Oeste 0 891.8 -0.1 94
2019-08-12 02:00:00 7.4 9 Noroeste 20 Oeste 0 892 0.3 94
2019-08-12 01:00:00 7.8 5 Norte 20 Oeste 0 892.1 0.8 92
2019-08-12 00:00:00 8.6 8 Noroeste 22 Noroeste 0 891.9 1.2 91
2019-08-11 23:00:00 8.8 6 Norte 26 Oeste 0.4 891.7 1.5 91
2019-08-11 22:00:00 9.1 8 Noroeste 32 Norte 2.8 891.3 1.6 91
2019-08-11 21:00:00 10.2 10 Norte 26 Oeste 0 890.7 1.1 84
2019-08-11 20:00:00 10.9 11 Norte 24 Noroeste 0 890.2 0.4 84
2019-08-11 19:00:00 14.2 10 Norte 22 Noroeste 0 889.7 0.1 75
2019-08-11 18:00:00 16.2 9 Norte 24 Norte 0.2 889.6 0 73
2019-08-11 17:00:00 16.5 7 Norte 22 Noroeste 0 889.8 -0.2 75
2019-08-11 16:00:00 14 8 Noroeste 15 Noroeste 1.2 889.6 -0.7 81
2019-08-11 15:00:00 16.5 6 Nordeste 15 Noroeste 0 889.6 -0.6 74
2019-08-11 14:00:00 12.5 4 Oeste 19 Oeste 7.4 890 0.2 92
2019-08-11 13:00:00 11.9 8 Sudeste 22 Sur 6.4 890.3 1.1 90
2019-08-11 12:00:00 13.5 9 Este 27 Este 0 890.2 1.1 81
2019-08-11 11:00:00 14.3 8 Este 23 Este 0 889.8 0.8 81
2019-08-11 10:00:00 11.8 5 Norte 19 Oeste 0 889.2 0 92
2019-08-11 09:00:00 10 7 Noroeste 22 Oeste 0 889.1 -0.8 94
2019-08-11 08:00:00 9.3 12 Oeste 20 Oeste 0 889 -1.2 94
2019-08-11 07:00:00 9.6 8 Noroeste 20 Oeste 0.8 889.2 -1.1 94
2019-08-11 06:00:00 9.3 4 Noroeste 22 Oeste 1.8 889.9 0 92
2019-08-11 05:00:00 9.5 4 Noroeste 19 Norte 3.2 890.2 -0.8 88
2019-08-11 04:00:00 10.8 6 Norte 23 Oeste 0 890.3 -0.9 78
2019-08-11 03:00:00 10.8 5 Noroeste 20 Oeste 0 889.9 -1.7 78
2019-08-11 02:00:00 10.7 5 Noroeste 19 Oeste 0 891 -0.6 82
2019-08-11 01:00:00 10.1 4 Noroeste 23 Oeste 0 891.2 -0.4 86
2019-08-11 00:00:00 10.3 4 Noroeste 18 Oeste 0 891.6 0.4 87
2019-08-10 23:00:00 10.7 3 Noroeste 22 Norte 0 891.6 0.8 86
2019-08-10 22:00:00 10.9 5 Norte 23 Nordeste 0 891.6 1.3 84
2019-08-10 21:00:00 13 8 Norte 27 Noroeste 0 891.2 1 77
2019-08-10 20:00:00 17.7 7 Norte 22 Este 0 890.8 0.2 58
2019-08-10 19:00:00 22 13 Este 24 Este 0 890.3 -0.6 48
2019-08-10 18:00:00 24.7 16 Sur 38 Sur 0 890.2 -1.1 23
2019-08-10 17:00:00 25.3 13 Sudoeste 36 Sur 0 890.6 -1.1 26
2019-08-10 16:00:00 25.5 12 Sur 38 Sur 0 890.9 -1.2 27
2019-08-10 15:00:00 23.8 14 Sudeste 25 Sudeste 0 891.3 -0.9 34
2019-08-10 14:00:00 23 10 Sur 32 Sur 0 891.7 -0.5 33
2019-08-10 13:00:00 21.1 7 Sudeste 29 Sur 0 892.1 -0.2 38
2019-08-10 12:00:00 19 8 Sudeste 23 Sudoeste 0 892.2 0.5 42
2019-08-10 11:00:00 16.3 9 Sudeste 23 Sur 0 892.2 1 60
2019-08-10 10:00:00 13.9 9 Sudeste 22 Sur 0 892.3 1.5 76
2019-08-10 09:00:00 11.2 0 Calma 17 Oeste 0 891.7 1.3 88
2019-08-10 08:00:00 9.8 4 Oeste 18 Sudoeste 0 891.2 0.7 87
2019-08-10 07:00:00 11 4 Sudeste 17 Sur 0 890.8 0.7 85
2019-08-10 06:00:00 11.5 5 Este 22 Este 0 890.4 0.4 82
2019-08-10 05:00:00 12.1 5 Nordeste 14 Nordeste 0 890.5 0.2 79
2019-08-10 04:00:00 13.2 8 Este 16 Sur 0 890.1 0.1 72
2019-08-10 03:00:00 14.4 6 Noroeste 15 Noroeste 0 890 0 61
2019-08-10 02:00:00 14.5 0 Calma 14 Oeste 0 890.3 0.4 63
2019-08-10 01:00:00 14.4 3 Oeste 17 Noroeste 0 890 0.9 64
2019-08-10 00:00:00 15.4 9 Noroeste 18 Noroeste 0 890 1.4 60
2019-08-09 23:00:00 16.1 6 Sudoeste 21 Noroeste 0 889.9 1.6 58
2019-08-09 22:00:00 17.4 13 Oeste 22 Noroeste 0 889.1 1.7 54
2019-08-09 21:00:00 18.2 8 Sudoeste 33 Oeste 0 888.6 1.6 50
2019-08-09 20:00:00 19.2 12 Sudoeste 34 Sudoeste 0 888.3 1.5 47
2019-08-09 19:00:00 20.2 18 Sudoeste 40 Sudoeste 0 887.4 0.8 47
2019-08-09 18:00:00 21.6 20 Sudoeste 51 Oeste 0 887 0.4 44
2019-08-09 17:00:00 22.8 24 Sudoeste 46 Sur 0 886.8 0.3 37
2019-08-09 16:00:00 23.7 20 Sudoeste 49 Sur 0 886.6 0.3 35
2019-08-09 15:00:00 22.6 16 Sudoeste 46 Oeste 0 886.6 0.6 43
2019-08-09 14:00:00 22.5 21 Sudoeste 43 Sudoeste 0 886.5 0.9 45
2019-08-09 13:00:00 20.7 21 Sudoeste 60 Oeste 0 886.3 1.2 54
2019-08-09 12:00:00 18.5 22 Sudoeste 49 Sudoeste 0.2 886 1.3 66
2019-08-09 11:00:00 15.5 27 Sudoeste 66 Sudoeste 1.2 885.6 1.1 86
2019-08-09 10:00:00 17.1 24 Sudoeste 59 Sudoeste 1.2 885.1 0.7 91
2019-08-09 09:00:00 16.7 24 Sudoeste 51 Sudoeste 0.2 884.7 0.1 92
2019-08-09 08:00:00 17.3 22 Sudoeste 53 Sudoeste 0 884.5 -0.3 86
2019-08-09 07:00:00 16.9 19 Sudoeste 45 Sur 0.2 884.4 -0.5 88
2019-08-09 06:00:00 18 23 Sudoeste 42 Sudoeste 0 884.6 -0.6 79
2019-08-09 05:00:00 18.4 18 Sudoeste 43 Sur 0 884.8 -0.5 77
2019-08-09 04:00:00 18.7 22 Sudoeste 51 Sudoeste 0 884.9 -0.7 75
2019-08-09 03:00:00 19.2 21 Sudoeste 46 Sudoeste 0 885.2 -0.6 71
2019-08-09 02:00:00 19.7 21 Sudoeste 55 Sudoeste 0 885.3 -0.2 68
2019-08-09 01:00:00 20.2 25 Sudoeste 64 Oeste 0 885.6 0.7 65
2019-08-09 00:00:00 20.6 23 Sudoeste 55 Sur 0 885.8 1.2 64
2019-08-08 23:00:00 20.8 21 Sudoeste 55 Noroeste 0 885.5 1 68
2019-08-08 22:00:00 21.7 25 Sudoeste 53 Sur 0 884.9 -0.1 63
2019-08-08 21:00:00 22.3 18 Sudoeste 51 Sur 0 884.6 -0.8 59
2019-08-08 20:00:00 23.6 24 Sudoeste 53 Sudoeste 0 884.5 -1.2 57
2019-08-08 19:00:00 23.3 21 Sudoeste 45 Sur 0 885 -1.2 64
2019-08-08 18:00:00 22.7 19 Sudoeste 39 Sur 0 885.4 -1.3 64
2019-08-08 17:00:00 24.4 16 Sudoeste 43 Sudoeste 0 885.7 -1.3 60
2019-08-08 16:00:00 24.5 17 Sudoeste 42 Sur 0 886.2 -1 60
2019-08-08 15:00:00 21.3 16 Sudoeste 41 Sur 0 886.7 -0.7 73
2019-08-08 14:00:00 20.8 11 Sudoeste 28 Sur 0 887 -0.4 76
2019-08-08 13:00:00 19.8 9 Sudoeste 30 Sudoeste 0 887.2 0.2 77
2019-08-08 12:00:00 17.4 6 Oeste 21 Sudoeste 0.2 887.4 0.7 85
2019-08-08 11:00:00 16.3 5 Sudoeste 30 Sudoeste 0 887.4 0.8 89
2019-08-08 10:00:00 16 8 Sudoeste 33 Sudoeste 0 887 0.6 92
2019-08-08 09:00:00 15.7 6 Sur 26 Sur 0.4 886.7 0.2 93
2019-08-08 08:00:00 15.4 5 Sudoeste 34 Oeste 0 886.6 0 91
2019-08-08 07:00:00 15.4 13 Sudoeste 35 Sudoeste 0 886.4 -0.3 90
2019-08-08 06:00:00 16 12 Oeste 40 Oeste 0 886.5 -0.3 84
2019-08-08 05:00:00 15.6 7 Sudoeste 33 Sudoeste 0 886.6 -0.2 85
2019-08-08 04:00:00 16.2 18 Sudoeste 46 Sudoeste 0 886.7 -0.1 81
2019-08-08 03:00:00 17.2 17 Sudoeste 40 Oeste 0 886.8 -0.1 72
2019-08-08 02:00:00 15.3 9 Oeste 18 Oeste 0 886.8 -0.5 84
2019-08-08 01:00:00 15.6 6 Sudoeste 31 Sudoeste 0 886.8 0 81
2019-08-08 00:00:00 15.1 13 Oeste 17 Oeste 0 886.9 0.5 84
2019-08-07 23:00:00 16.6 8 Sudoeste 23 Sudoeste 0 887.3 0.5 78
2019-08-07 22:00:00 17.2 10 Sudoeste 28 Sudoeste 0 886.8 0 73
2019-08-07 21:00:00 17.7 9 Sudoeste 32 Sudoeste 0 886.4 -0.1 68
2019-08-07 20:00:00 18.1 9 Sudoeste 39 Sudoeste 0 886.8 0.4 66
2019-08-07 19:00:00 18.9 10 Sudoeste 28 Sudoeste 0 886.8 0.3 62
2019-08-07 18:00:00 20.2 9 Sudoeste 40 Sur 0 886.5 0.1 57
2019-08-07 17:00:00 21.3 18 Sudoeste 43 Sur 0 886.4 -0.2 50
2019-08-07 16:00:00 21.9 11 Sudoeste 31 Sudoeste 0 886.5 -0.2 54
2019-08-07 15:00:00 23.4 14 Sudoeste 29 Sudoeste 0 886.4 -0.4 49
2019-08-07 14:00:00 23.4 12 Sudoeste 24 Sur 0 886.6 -0.1 50
2019-08-07 13:00:00 22.7 14 Sur 27 Sur 0 886.7 0 51
2019-08-07 12:00:00 21.4 12 Sudeste 20 Sudeste 0 886.8 0.6 60
2019-08-07 11:00:00 18.8 9 Sur 18 Sur 0 886.7 0.7 71
2019-08-07 10:00:00 16.2 4 Nordeste 13 Oeste 0 886.7 1 84
2019-08-07 09:00:00 14.5 2 Norte 8 Noroeste 0 886.2 0.6 93
2019-08-07 08:00:00 13.2 2 Noroeste 6 Oeste 0 886 0.6 93
2019-08-07 07:00:00 13.2 3 Noroeste 12 Oeste 0 885.7 0.2 92
2019-08-07 06:00:00 13.9 0 Calma 11 Oeste 0 885.6 -0.2 92
2019-08-07 05:00:00 14.1 5 Norte 14 Oeste 0 885.4 -0.7 91
2019-08-07 04:00:00 14.2 5 Noroeste 14 Oeste 0 885.5 -1.4 91
2019-08-07 03:00:00 14.3 7 Noroeste 13 Oeste 0 885.8 -1.5 92
2019-08-07 02:00:00 14.4 4 Oeste 14 Oeste 0 886.1 -1.2 91
2019-08-07 01:00:00 14.5 3 Sudeste 14 Oeste 0 886.9 0.6 89
2019-08-07 00:00:00 15 4 Oeste 13 Oeste 0 887.3 1 88
2019-08-06 23:00:00 15.9 7 Noroeste 21 Noroeste 0 887.3 1.4 83
2019-08-06 22:00:00 16.4 13 Noroeste 22 Noroeste 0 886.3 0.7 82
2019-08-06 21:00:00 17.8 11 Noroeste 25 Norte 0 886.3 0.4 78
2019-08-06 20:00:00 19.8 9 Norte 25 Noroeste 0 885.9 0 70
2019-08-06 19:00:00 23.5 4 Norte 22 Oeste 0 885.6 -0.7 51
2019-08-06 18:00:00 25.4 7 Sudoeste 23 Oeste 0 885.9 -0.4 34
2019-08-06 17:00:00 26.7 10 Sudoeste 29 Sur 0 885.9 -1.2 36
2019-08-06 16:00:00 27.3 15 Sur 28 Sur 0 886.3 -1 35
2019-08-06 15:00:00 26.8 6 Noroeste 22 Sur 0 886.3 -1.2 38
2019-08-06 14:00:00 25.1 5 Noroeste 27 Sur 0 887.1 -0.5 44
2019-08-06 13:00:00 25.4 12 Sudoeste 22 Sur 0 887.3 -0.2 44
2019-08-06 12:00:00 21.4 6 Nordeste 18 Sur 0 887.5 -0.1 58
2019-08-06 11:00:00 19.2 8 Sudeste 16 Sur 0 887.6 0.2 69
2019-08-06 10:00:00 16 4 Oeste 14 Oeste 0 887.5 0.1 84
2019-08-06 09:00:00 13.5 4 Noroeste 23 Oeste 0 887.6 0.1 89
2019-08-06 08:00:00 12.5 6 Oeste 19 Oeste 0 887.4 -0.5 92
2019-08-06 07:00:00 12.6 6 Noroeste 14 Noroeste 0 887.4 -0.7 92
2019-08-06 06:00:00 12.8 5 Noroeste 15 Noroeste 0 887.5 -0.8 92
2019-08-06 05:00:00 12.9 5 Noroeste 15 Noroeste 0 887.9 -0.8 93
2019-08-06 04:00:00 13.5 8 Noroeste 17 Noroeste 0 888.1 -0.6 91
2019-08-06 03:00:00 13.9 9 Noroeste 18 Noroeste 0 888.3 -0.5 91
2019-08-06 02:00:00 14.2 5 Noroeste 18 Noroeste 0 888.7 -0.1 89
2019-08-06 01:00:00 15 8 Noroeste 19 Noroeste 0 888.7 0.5 89
2019-08-06 00:00:00 15.6 13 Noroeste 21 Noroeste 0 888.8 1 87
2019-08-05 23:00:00 16.6 13 Norte 20 Norte 0 888.8 1.3 82
2019-08-05 22:00:00 18 9 Sudoeste 21 Norte 0 888.2 0.8 76
2019-08-05 21:00:00 20.8 8 Norte 18 Norte 0 887.8 0.5 67
2019-08-05 20:00:00 25.2 4 Nordeste 18 Este 0 887.5 -0.1 54
2019-08-05 19:00:00 26.9 8 Nordeste 19 Norte 0 887.4 -0.4 50
2019-08-05 18:00:00 29.5 9 Sudeste 31 Sur 0 887.3 -0.8 27
2019-08-05 17:00:00 29.9 12 Sur 34 Sur 0 887.6 -0.9 32
2019-08-05 16:00:00 29.7 10 Sudoeste 31 Sudoeste 0 887.8 -1.1 31
2019-08-05 15:00:00 29 10 Sudoeste 29 Sur 0 888.1 -1.2 35
2019-08-05 14:00:00 26.4 11 Oeste 26 Sur 0 888.5 -0.9 41
2019-08-05 13:00:00 25 12 Sudeste 26 Sur 0 888.9 -0.7 49
2019-08-05 12:00:00 22 12 Este 19 Sur 0 889.3 -0.2 57
2019-08-05 11:00:00 18.4 9 Sudeste 14 Sur 0 889.4 -0.1 73
2019-08-05 10:00:00 15.5 2 Este 10 Sur 0 889.6 0.2 85
2019-08-05 09:00:00 13.5 2 Nordeste 10 Sudoeste 0 889.5 0.2 86
2019-08-05 08:00:00 12 5 Noroeste 15 Noroeste 0 889.5 0.1 89
2019-08-05 07:00:00 10.8 6 Noroeste 19 Oeste 0 889.4 -0.3 92
2019-08-05 06:00:00 12 4 Noroeste 14 Noroeste 0 889.3 -0.7 91
2019-08-05 05:00:00 12.7 9 Noroeste 21 Oeste 0 889.4 -0.6 93
2019-08-05 04:00:00 12.3 7 Noroeste 15 Noroeste 0 889.7 -0.5 94
2019-08-05 03:00:00 12.7 6 Noroeste 13 Noroeste 0 890 -0.3 93
2019-08-05 02:00:00 13.4 8 Noroeste 18 Noroeste 0 890 -0.2 91
2019-08-05 01:00:00 13.7 5 Noroeste 17 Noroeste 0 890.2 0.7 91
2019-08-05 00:00:00 14.4 13 Noroeste 19 Noroeste 0 890.3 1.4 90
2019-08-04 23:00:00 14.6 0 Calma 19 Noroeste 0 890.2 1.9 87
2019-08-04 22:00:00 15.4 11 Noroeste 26 Norte 0 889.5 1.9 85
2019-08-04 21:00:00 17.6 13 Norte 23 Noroeste 0 888.9 1.3 75
2019-08-04 20:00:00 25 10 Nordeste 24 Oeste 0 888.3 0.4 51
2019-08-04 19:00:00 30.1 6 Sudoeste 27 Sudoeste 0 887.6 -0.4 24
2019-08-04 18:00:00 30.1 5 Sudoeste 26 Sur 0 887.6 -0.7 28
2019-08-04 17:00:00 28.7 9 Sudoeste 35 Sur 0 887.9 -0.8 32
2019-08-04 16:00:00 29.5 16 Sudoeste 31 Sudoeste 0 888 -1 30
2019-08-04 15:00:00 27.6 8 Sudoeste 30 Sur 0 888.3 -0.8 37
2019-08-04 14:00:00 26.4 14 Sudeste 28 Sur 0 888.7 -0.4 47
2019-08-04 13:00:00 24.1 13 Sudeste 23 Sur 0 889 -0.3 51
2019-08-04 12:00:00 20.8 11 Sudeste 19 Sudeste 0 889.1 0.1 64
2019-08-04 11:00:00 17.6 9 Sur 17 Sudeste 0 889.1 0.7 74
2019-08-04 10:00:00 15.4 5 Sudeste 14 Sur 0 889.3 1 82
2019-08-04 09:00:00 13.7 5 Este 12 Noroeste 0 889 0.6 84
2019-08-04 08:00:00 12.9 3 Noroeste 14 Noroeste 0 888.4 -0.1 80
2019-08-04 07:00:00 12.9 7 Noroeste 17 Oeste 0 888.3 -0.4 81
2019-08-04 06:00:00 12.6 7 Noroeste 17 Oeste 0 888.4 -0.4 82
2019-08-04 05:00:00 14.5 9 Noroeste 17 Oeste 0 888.5 -0.3 74
2019-08-04 04:00:00 15.9 14 Oeste 20 Oeste 0 888.7 -0.1 69
2019-08-04 03:00:00 16.8 15 Oeste 21 Noroeste 0 888.8 0 64
2019-08-04 02:00:00 17.4 16 Oeste 23 Oeste 0 888.8 0 62
2019-08-04 01:00:00 17.2 15 Oeste 22 Oeste 0 888.8 0.5 63
2019-08-04 00:00:00 17.8 16 Oeste 22 Oeste 0 888.8 0.8 64
2019-08-03 23:00:00 17.5 9 Noroeste 23 Oeste 0 888.8 1.2 62
2019-08-03 22:00:00 18.8 10 Noroeste 22 Oeste 0 888.3 0.9 59
2019-08-03 21:00:00 20.7 12 Norte 22 Oeste 0 888 0.7 60
2019-08-03 20:00:00 22.2 11 Norte 22 Norte 0 887.6 0.1 58
2019-08-03 19:00:00 26.2 9 Norte 25 Nordeste 0 887.4 -0.5 48
2019-08-03 18:00:00 28.8 6 Norte 14 Noroeste 0 887.3 -0.9 40
2019-08-03 17:00:00 30.2 4 Nordeste 10 Noroeste 0 887.5 -1.1 34
2019-08-03 16:00:00 29 2 Norte 9 Sur 0 887.9 -1 32
2019-08-03 15:00:00 30.7 7 Sur 30 Sudoeste 0 888.2 -0.8 28
2019-08-03 14:00:00 29.3 8 Sudeste 18 Sudeste 0 888.6 -0.5 34
2019-08-03 13:00:00 27.8 7 Sudeste 19 Sur 0 888.9 -0.4 35
2019-08-03 12:00:00 24.1 4 Este 12 Nordeste 0 889 -0.3 46
2019-08-03 11:00:00 21.3 4 Nordeste 19 Oeste 0 889.1 0 49
2019-08-03 10:00:00 18.9 14 Oeste 21 Oeste 0 889.3 0.1 51
2019-08-03 09:00:00 16 8 Oeste 27 Oeste 0 889.3 0 55
2019-08-03 08:00:00 14.6 11 Noroeste 24 Oeste 0 889.1 -0.6 53
2019-08-03 07:00:00 14.1 9 Noroeste 17 Noroeste 0 889.2 -0.8 54
2019-08-03 06:00:00 13.7 7 Noroeste 22 Oeste 0 889.3 -0.8 63
2019-08-03 05:00:00 13.2 8 Noroeste 28 Oeste 0 889.7 -0.2 71
2019-08-03 04:00:00 12.2 8 Noroeste 24 Oeste 0 890 -0.2 78
2019-08-03 03:00:00 13.6 6 Nordeste 21 Oeste 0 890.1 -0.3 69
2019-08-03 02:00:00 15.3 10 Noroeste 21 Oeste 0 889.9 -0.6 66
2019-08-03 01:00:00 15.6 12 Noroeste 21 Oeste 0 890.2 0.2 63
2019-08-03 00:00:00 16.6 15 Oeste 21 Oeste 0 890.4 0.6 60
2019-08-02 23:00:00 17.7 14 Oeste 22 Oeste 0 890.5 1 58
2019-08-02 22:00:00 18.3 11 Noroeste 23 Oeste 0 890 0.4 55
2019-08-02 21:00:00 21.1 7 Norte 22 Norte 0 889.8 0.1 55
2019-08-02 20:00:00 23.8 8 Norte 18 Norte 0 889.5 -0.3 53
2019-08-02 19:00:00 25.2 9 Norte 22 Norte 0 889.6 -0.5 49
2019-08-02 18:00:00 27 6 Nordeste 20 Sudeste 0 889.7 -0.6 45
2019-08-02 17:00:00 28.2 9 Este 24 Este 0 889.8 -0.5 34
2019-08-02 16:00:00 28.2 10 Este 22 Sudeste 0 890.1 -0.5 35
2019-08-02 15:00:00 27.4 10 Sudeste 24 Sur 0 890.3 -0.4 39
2019-08-02 14:00:00 26.1 10 Sudeste 18 Sudeste 0 890.3 -0.2 43
2019-08-02 13:00:00 23.6 8 Este 20 Sur 0 890.6 0.1 47
2019-08-02 12:00:00 19.5 8 Sudeste 14 Oeste 0 890.7 0.4 54
2019-08-02 11:00:00 16.2 3 Sur 7 Sudoeste 0 890.5 0.6 81
2019-08-02 10:00:00 12.7 2 Noroeste 18 Oeste 0 890.5 0.7 92
2019-08-02 09:00:00 10.3 5 Sudoeste 19 Oeste 0 890.3 0.5 96
2019-08-02 08:00:00 8.7 10 Oeste 18 Oeste 0 889.9 0.1 96
2019-08-02 07:00:00 9.3 6 Sudoeste 14 Oeste 0 889.8 -0.2 95
2019-08-02 06:00:00 8.9 7 Sudoeste 17 Sudoeste 0 889.8 -0.3 95
2019-08-02 05:00:00 9.5 4 Oeste 18 Oeste 0 889.8 -0.5 94
2019-08-02 04:00:00 9.9 6 Oeste 17 Oeste 0 890 -0.3 94
2019-08-02 03:00:00 10.5 3 Noroeste 13 Oeste 0 890.1 -0.1 92
2019-08-02 02:00:00 11.6 4 Norte 15 Noroeste 0 890.3 0.3 91
2019-08-02 01:00:00 12.2 5 Noroeste 17 Noroeste 0 890.3 1.1 92
2019-08-02 00:00:00 12.7 8 Noroeste 19 Noroeste 0 890.2 1.4 91
2019-08-01 23:00:00 13.3 10 Noroeste 21 Noroeste 0 890 1.7 89
2019-08-01 22:00:00 13.7 10 Noroeste 29 Norte 0 889.2 1 89
2019-08-01 21:00:00 15.9 11 Noroeste 22 Norte 0 888.8 0.8 81
2019-08-01 20:00:00 17.7 10 Noroeste 17 Noroeste 0 888.3 0.4 81
2019-08-01 19:00:00 16.8 12 Noroeste 20 Oeste 0.2 888.2 0.4 85
2019-08-01 18:00:00 17.2 10 Noroeste 21 Norte 0.2 888 0.4 86
2019-08-01 17:00:00 16.4 14 Norte 24 Norte 1.8 887.9 0.1 88
2019-08-01 16:00:00 22.6 8 Nordeste 22 Sur 0 887.8 -0.1 60
2019-08-01 15:00:00 24.2 9 Este 22 Sur 0 887.6 -0.2 60
2019-08-01 14:00:00 22.2 12 Sudeste 21 Sudeste 0 887.8 0.1 62
2019-08-01 13:00:00 20.6 11 Sudeste 18 Sudeste 0 887.9 0.3 66
2019-08-01 12:00:00 18.6 5 Sur 19 Sudoeste 0 887.8 0.4 69
2019-08-01 11:00:00 16.1 3 Noroeste 15 Noroeste 0 887.7 0.7 75
2019-08-01 10:00:00 14.3 4 Noroeste 21 Oeste 0 887.6 0.6 84
2019-08-01 09:00:00 11.5 5 Nordeste 19 Sudoeste 0 887.4 0.1 92
2019-08-01 08:00:00 9.2 4 Noroeste 23 Oeste 0 887 -0.3 92
2019-08-01 07:00:00 9.5 6 Norte 23 Oeste 0 887 -0.3 91
2019-08-01 06:00:00 9.7 6 Noroeste 20 Oeste 0 887.3 -0.8 90
2019-08-01 05:00:00 9.8 4 Norte 21 Oeste 0 887.3 -1.2 86
2019-08-01 04:00:00 10.2 5 Noroeste 22 Oeste 0 887.3 -1.7 90
2019-08-01 03:00:00 10.8 6 Noroeste 23 Oeste 0 888.1 -1.2 91
2019-08-01 02:00:00 11.5 6 Noroeste 15 Noroeste 0 888.5 -0.7 88
2019-08-01 01:00:00 12.1 6 Noroeste 19 Noroeste 0 889 0.3 88
2019-08-01 00:00:00 12.9 10 Noroeste 25 Norte 0 889.3 0.8 84
2019-07-31 23:00:00 13.7 13 Noroeste 26 Norte 0 889.2 0.7 83
2019-07-31 22:00:00 14.5 11 Noroeste 23 Norte 0 888.7 -0.1 79
2019-07-31 21:00:00 16.2 10 Noroeste 18 Noroeste 0 888.5 -0.4 73
2019-07-31 20:00:00 17.8 11 Noroeste 17 Noroeste 0 888.5 -0.5 67
2019-07-31 19:00:00 20.3 10 Sudeste 22 Sur 0 888.8 -0.7 51
2019-07-31 18:00:00 21.3 13 Sudeste 20 Sur 0 888.9 -1 49
2019-07-31 17:00:00 22.5 7 Sur 17 Sur 0 889 -1 42
2019-07-31 16:00:00 22.1 10 Sudeste 23 Sur 0 889.5 -1 43
2019-07-31 15:00:00 20.9 17 Sudeste 28 Este 0 889.9 -0.9 45
2019-07-31 14:00:00 20.8 9 Sur 18 Sur 0 890 -0.8 47
2019-07-31 13:00:00 19.6 6 Sudeste 18 Sur 0 890.5 -0.6 54
2019-07-31 12:00:00 16.8 5 Este 19 Sudoeste 0 890.8 -0.4 62
2019-07-31 11:00:00 13.7 3 Este 17 Oeste 0 890.8 -0.6 71
2019-07-31 10:00:00 11.3 3 Noroeste 20 Oeste 0 891.1 -0.4 76
2019-07-31 09:00:00 9.1 10 Noroeste 22 Oeste 0 891.2 -0.1 94
2019-07-31 08:00:00 7.6 14 Noroeste 23 Oeste 0 891.4 -0.1 95
2019-07-31 07:00:00 7.9 15 Oeste 19 Oeste 0 891.5 0 95
2019-07-31 06:00:00 8 11 Oeste 16 Este 0 891.3 -0.5 95
2019-07-31 05:00:00 7.2 11 Sur 19 Oeste 0 891.5 -0.5 95
2019-07-31 04:00:00 7.2 11 Sur 18 Oeste 0 891.5 -0.6 94
2019-07-31 03:00:00 7.5 6 Noroeste 17 Oeste 0 891.8 -0.3 93
2019-07-31 02:00:00 8.1 4 Noroeste 17 Oeste 0 892 -0.2 92
2019-07-31 01:00:00 8.8 10 Oeste 21 Oeste 0 892.1 0.6 91
2019-07-31 00:00:00 9.3 8 Norte 16 Norte 0 892.1 0.9 91
2019-07-30 23:00:00 9 3 Noroeste 17 Nordeste 0 892.2 1.1 88
2019-07-30 22:00:00 10.1 8 Norte 24 Norte 0 891.5 0.5 86
2019-07-30 21:00:00 12.6 9 Norte 26 Norte 0 891.2 0.2 75
2019-07-30 20:00:00 16.1 6 Norte 19 Norte 0 891.1 0.1 64
2019-07-30 19:00:00 17.8 8 Noroeste 19 Noroeste 0 891 -0.2 59
2019-07-30 18:00:00 18.6 7 Noroeste 22 Sudeste 0 891 -0.2 56
2019-07-30 17:00:00 19.9 11 Sudeste 28 Sudeste 0 891 -0.5 53
2019-07-30 16:00:00 20.7 11 Sudeste 25 Este 0 891.2 -0.3 44
2019-07-30 15:00:00 20.8 10 Sudeste 25 Sur 0 891.2 -0.3 48
2019-07-30 14:00:00 19.6 10 Sudeste 25 Sur 0 891.5 0.4 52
2019-07-30 13:00:00 19 9 Sur 25 Sur 0 891.5 0.3 54
2019-07-30 12:00:00 16.9 8 Sur 25 Sur 0 891.5 0.7 53
2019-07-30 11:00:00 13.3 7 Sur 18 Oeste 0 891.1 0.8 67
2019-07-30 10:00:00 11.4 5 Noroeste 23 Oeste 0 891.2 1.5 67
2019-07-30 09:00:00 9.6 12 Oeste 23 Oeste 0 890.8 1.2 80
2019-07-30 08:00:00 9.5 9 Noroeste 21 Oeste 0 890.3 0.9 94
2019-07-30 07:00:00 9.7 6 Este 17 Este 0 889.7 0.4 94
2019-07-30 06:00:00 9.8 5 Este 17 Este 0 889.6 0.4 93
2019-07-30 05:00:00 10.3 6 Este 17 Este 0 889.4 0.3 92
2019-07-30 04:00:00 10.7 9 Este 17 Sur 0 889.3 0.5 93
2019-07-30 03:00:00 10.9 9 Sudeste 20 Sur 0 889.2 0.7 93
2019-07-30 02:00:00 11.1 6 Sudeste 19 Sur 0 889.1 1 93
2019-07-30 01:00:00 11.4 6 Este 19 Este 0 888.8 1.7 92
2019-07-30 00:00:00 10.8 6 Este 22 Este 0 888.5 2.3 90
2019-07-29 23:00:00 11.5 8 Este 24 Este 0 888.1 2.6 87
2019-07-29 22:00:00 13.1 9 Este 23 Este 0 887.1 1.7 81
2019-07-29 21:00:00 18.2 11 Este 37 Sur 0 886.2 0.8 63
2019-07-29 20:00:00 22.1 10 Sudoeste 30 Sudoeste 0 885.5 0.3 37
2019-07-29 19:00:00 23.5 13 Sudoeste 38 Sur 0 885.4 0.3 34
2019-07-29 18:00:00 23.3 13 Sudoeste 37 Sudoeste 0 885.4 0.6 38
2019-07-29 17:00:00 23.1 15 Sudoeste 40 Sudoeste 0 885.2 0.3 35
2019-07-29 16:00:00 23.3 13 Sudoeste 36 Sur 0 885.1 0.2 37
2019-07-29 15:00:00 23.1 16 Sudoeste 41 Sur 0 884.8 0.2 44
2019-07-29 14:00:00 22.2 13 Sudoeste 36 Sur 0 884.9 0.4 48
2019-07-29 13:00:00 21.5 12 Sudoeste 35 Sur 0 884.9 0.6 52
2019-07-29 12:00:00 20.4 13 Sudoeste 37 Sur 0 884.6 0.3 52
2019-07-29 11:00:00 17 11 Sur 21 Sur 0 884.5 0.5 63
2019-07-29 10:00:00 14.4 6 Sudeste 14 Sudeste 0 884.3 0.5 71
2019-07-29 09:00:00 11.6 3 Noroeste 22 Oeste 0 884.3 0.6 72
2019-07-29 08:00:00 9.7 9 Noroeste 23 Oeste 0 884 0.3 74
2019-07-29 07:00:00 10.5 8 Noroeste 22 Oeste 0 883.8 0 72
2019-07-29 06:00:00 11.2 8 Noroeste 26 Oeste 0 883.7 -0.3 66
2019-07-29 05:00:00 11.7 8 Noroeste 24 Oeste 0 883.7 -0.6 64
2019-07-29 04:00:00 11.4 6 Noroeste 22 Oeste 0 883.8 -0.6 69
2019-07-29 03:00:00 12.4 6 Noroeste 24 Oeste 0 884 -0.5 68
2019-07-29 02:00:00 13.3 6 Noroeste 19 Noroeste 0 884.3 -0.3 67
2019-07-29 01:00:00 13.3 8 Noroeste 23 Oeste 0 884.4 0.1 71
2019-07-29 00:00:00 13.8 6 Noroeste 21 Oeste 0 884.5 0.3 67
2019-07-28 23:00:00 14.8 14 Oeste 19 Oeste 0 884.6 0.6 63
2019-07-28 22:00:00 17 5 Sudoeste 18 Oeste 0 884.3 0.3 53
2019-07-28 21:00:00 21.1 5 Sudoeste 15 Sudoeste 0 884.2 0.1 46
2019-07-28 20:00:00 22.6 10 Sudoeste 25 Sudoeste 0 884 -0.5 40
2019-07-28 19:00:00 23.6 9 Sudoeste 35 Sudoeste 0 884 -0.9 40
2019-07-28 18:00:00 23.2 12 Sudoeste 35 Sudoeste 0 884.1 -1.1 39
2019-07-28 17:00:00 22.7 14 Sudoeste 34 Sudoeste 0 884.5 -1.1 43
2019-07-28 16:00:00 22.3 15 Sur 39 Sur 0 884.9 -1 44
2019-07-28 15:00:00 21.3 14 Sur 36 Sur 0 885.2 -0.9 47
2019-07-28 14:00:00 19.6 19 Sur 35 Sur 0 885.6 -1 51
2019-07-28 13:00:00 18.9 10 Sur 30 Sur 0 885.9 -0.5 57
2019-07-28 12:00:00 15.4 10 Sudeste 28 Este 0 886.1 -0.2 72
2019-07-28 11:00:00 12.2 13 Este 26 Este 0 886.6 0.4 89
2019-07-28 10:00:00 9.8 9 Sudeste 16 Este 0 886.4 0.2 96
2019-07-28 09:00:00 8 6 Sur 19 Oeste 0 886.3 0.3 96
2019-07-28 08:00:00 6.1 9 Oeste 19 Oeste 0 886.2 0.2 95
2019-07-28 07:00:00 6.5 15 Oeste 21 Oeste 0 886.2 0.2 95
2019-07-28 06:00:00 6.3 5 Noroeste 19 Oeste 0 886 -0.3 94
2019-07-28 05:00:00 7 4 Sudoeste 19 Oeste 0 886 -0.4 94
2019-07-28 04:00:00 7.8 5 Oeste 23 Oeste 0 886 -0.4 92
2019-07-28 03:00:00 8.1 14 Noroeste 23 Oeste 0 886.3 -0.3 93
2019-07-28 02:00:00 8.8 6 Noroeste 24 Oeste 0 886.4 0.3 90
2019-07-28 01:00:00 9.3 8 Noroeste 24 Oeste 0 886.4 0.9 88
2019-07-28 00:00:00 9.7 6 Noroeste 21 Oeste 0 886.6 1.6 89
2019-07-27 23:00:00 10.5 9 Norte 28 Norte 0 886.1 1.9 87
2019-07-26 12:00:00 14.9 2 Sudeste 17 Noroeste 0.2 887.4 0.8 88
2019-07-26 11:00:00 14.3 9 Noroeste 22 Norte 2.2 887.1 0.2 90
2019-07-26 10:00:00 15.1 8 Noroeste 22 Noroeste 0 886.8 -0.2 81
2019-07-26 09:00:00 15.8 8 Noroeste 16 Noroeste 0 886.6 -0.4 85
2019-07-26 08:00:00 14.5 2 Norte 12 Oeste 0 886.9 -0.4 91
2019-07-26 07:00:00 14.4 2 Sudeste 11 Sur 0 887 -0.4 93
2019-07-26 06:00:00 14.5 5 Sudeste 14 Oeste 0 887 -0.4 91
2019-07-26 05:00:00 14.5 3 Este 14 Oeste 0 887.3 -0.6 89
2019-07-26 04:00:00 14.7 3 Noroeste 15 Noroeste 0 887.4 -0.7 89
2019-07-26 03:00:00 14.8 5 Norte 13 Sur 0 887.4 -0.8 87
2019-07-26 02:00:00 15.3 5 Sur 15 Oeste 0 887.9 -0.1 85
2019-07-26 01:00:00 15.4 5 Sudoeste 15 Oeste 0 888.1 0.8 84
2019-07-26 00:00:00 16 9 Oeste 20 Noroeste 0 888.2 1.7 82
2019-07-25 23:00:00 16.4 11 Noroeste 23 Noroeste 0 888 2.2 79
2019-07-25 22:00:00 18.2 10 Norte 21 Norte 0 887.3 1.5 70
2019-07-25 21:00:00 21.2 11 Norte 30 Sur 0 886.5 0.2 58
2019-07-25 20:00:00 26.6 12 Sudoeste 32 Sudoeste 0 885.8 -0.8 32
2019-07-25 19:00:00 28.7 11 Sudoeste 37 Sur 0 885.8 -0.9 27
2019-07-25 18:00:00 30.1 17 Sur 45 Sur 0 886.3 -0.8 22
2019-07-25 17:00:00 30.5 21 Sur 45 Sur 0 886.6 -0.7 18
2019-07-25 16:00:00 30 19 Sur 49 Sur 0 886.7 -0.8 24
2019-07-25 15:00:00 29.3 21 Sur 49 Sudoeste 0 887.1 -0.4 26
2019-07-25 14:00:00 28.1 26 Sur 52 Sur 0 887.3 -0.1 29
2019-07-25 13:00:00 27.1 16 Sudoeste 39 Sur 0 887.5 0.1 34
2019-07-25 12:00:00 26.5 18 Sur 37 Sur 0 887.5 0.2 37
2019-07-25 11:00:00 24 15 Sudoeste 27 Sudoeste 0 887.4 0.3 40
2019-07-25 10:00:00 20.3 6 Este 18 Sudoeste 0 887.4 0.5 66
2019-07-25 09:00:00 18.2 8 Nordeste 17 Oeste 0 887.3 0.4 71
2019-07-25 08:00:00 16.1 5 Nordeste 21 Oeste 0 887.1 0 72
2019-07-25 07:00:00 15.4 8 Noroeste 21 Oeste 0 886.9 0 70
2019-07-25 06:00:00 16.1 12 Oeste 22 Sur 0 886.9 -0.2 69
2019-07-25 05:00:00 16.2 9 Sur 24 Oeste 0 887.1 -0.4 68
2019-07-25 04:00:00 18.4 17 Oeste 24 Oeste 0 886.9 -0.9 57
2019-07-25 03:00:00 19.1 17 Oeste 25 Oeste 0 887.1 -0.7 54
2019-07-25 02:00:00 19 15 Oeste 25 Oeste 0 887.5 -0.1 55
2019-07-25 01:00:00 19.3 6 Noroeste 23 Oeste 0 887.8 0.6 58
2019-07-25 00:00:00 20.4 4 Noroeste 8 Norte 0 887.8 0.7 53
2019-07-24 23:00:00 21.9 2 Noroeste 17 Oeste 0 887.6 0.5 49
2019-07-24 22:00:00 24.5 4 Noroeste 15 Sudoeste 0 887.2 -0.1 42
2019-07-24 21:00:00 28.2 6 Sudoeste 26 Sudoeste 0 887.1 -0.7 33
2019-07-24 20:00:00 29.9 12 Sudoeste 32 Sudoeste 0 887.1 -1.1 32
2019-07-24 19:00:00 30.3 16 Sur 38 Sur 0 887.3 -1.3 29
2019-07-24 18:00:00 30.9 17 Sur 35 Sudoeste 0 887.8 -1.1 29
2019-07-24 17:00:00 29.3 14 Sudoeste 55 Sur 0 888.2 -1.1 32
2019-07-24 16:00:00 30.7 25 Sur 46 Sur 0 888.6 -1.1 29
2019-07-24 15:00:00 30.5 21 Sur 41 Sur 0 888.9 -1.1 32
2019-07-24 14:00:00 28.1 10 Sudeste 29 Sur 0 889.3 -0.6 44
2019-07-24 13:00:00 27.2 8 Sudeste 26 Sur 0 889.7 -0.4 44
2019-07-24 12:00:00 25.4 12 Sudeste 26 Sur 0 890 0.1 45
2019-07-24 11:00:00 23.3 11 Sudeste 21 Sur 0 889.9 0 52
2019-07-24 10:00:00 20.9 5 Nordeste 17 Oeste 0 890.1 0.1 60
2019-07-24 09:00:00 18.3 10 Noroeste 22 Oeste 0 889.9 -0.1 69
2019-07-24 08:00:00 14.8 8 Oeste 21 Oeste 0 889.9 -0.2 74
2019-07-24 07:00:00 14 11 Oeste 21 Oeste 0 890 -0.4 79
2019-07-24 06:00:00 15.3 12 Oeste 20 Noroeste 0 890 -0.5 76
2019-07-24 05:00:00 15 9 Oeste 22 Oeste 0 890.1 -1.3 77
2019-07-24 04:00:00 15.9 14 Noroeste 23 Oeste 0 890.4 -2.4 75
2019-07-24 03:00:00 16.7 5 Oeste 23 Noroeste 0 890.5 -0.9 74
2019-07-24 02:00:00 17.6 13 Noroeste 19 Oeste 0 891.4 0.6 72
2019-07-24 01:00:00 18.9 10 Este 32 Sudeste 0 892.8 1.3 64
2019-07-24 00:00:00 18.4 10 Norte 23 Oeste 0 891.4 1.6 71
2019-07-23 23:00:00 19.7 12 Oeste 29 Este 0 890.8 1.5 61
2019-07-23 22:00:00 22.6 13 Este 31 Este 0 891.5 2.2 48
2019-07-23 21:00:00 26.3 6 Este 31 Sudeste 0 889.8 0 42
2019-07-23 20:00:00 29.9 3 Nordeste 13 Sur 0 889.3 -1.1 42
2019-07-23 19:00:00 31.3 9 Sudoeste 17 Sudoeste 0 889.3 -1.3 29
2019-07-23 18:00:00 30.6 6 Sur 27 Sudoeste 0 889.8 -1.2 33
2019-07-23 17:00:00 30 11 Sudoeste 36 Sur 0 890.4 -0.6 34
2019-07-23 16:00:00 30.5 17 Sur 35 Sur 0 890.6 0 36
2019-07-23 15:00:00 29.1 19 Sudoeste 42 Sur 0 891 0.6 36
2019-07-23 14:00:00 29.4 23 Sur 43 Sur 0 891 0.1 35
2019-07-23 13:00:00 28.6 22 Sur 37 Sur 0 890.6 -1.9 35
2019-07-23 12:00:00 24.6 4 Noroeste 22 Oeste 0 890.4 -2.4 55
2019-07-23 11:00:00 22 9 Oeste 32 Sudoeste 0 890.9 -0.6 57
2019-07-23 10:00:00 21.8 13 Sudoeste 50 Sur 0.2 892.5 1 54
2019-07-23 09:00:00 20.2 14 Sudoeste 47 Sudoeste 0 892.8 1.7 55
2019-07-23 08:00:00 16.6 14 Oeste 24 Noroeste 0 891.5 0.3 67
2019-07-23 07:00:00 15.4 8 Oeste 23 Oeste 0 891.5 -0.3 74
2019-07-23 06:00:00 16.5 13 Oeste 23 Oeste 0 891.1 -0.9 72
2019-07-23 05:00:00 16 12 Oeste 22 Sur 0 891.2 -1.3 75
2019-07-23 04:00:00 17.1 8 Norte 26 Sur 0 891.8 -1.4 69
2019-07-23 03:00:00 15.7 10 Oeste 22 Oeste 0 892 -1.5 85
2019-07-23 02:00:00 15.8 10 Norte 20 Noroeste 0 892.5 -1.1 84
2019-07-23 01:00:00 16.3 9 Oeste 24 Noroeste 0 893.2 -2 83
2019-07-23 00:00:00 16.4 13 Oeste 23 Noroeste 0 893.5 1.3 84
2019-07-22 23:00:00 17.3 16 Oeste 36 Noroeste 0 893.6 2.2 79
2019-07-22 22:00:00 16.6 18 Noroeste 68 Sur 5.2 895.2 3.5 86
2019-07-22 21:00:00 19.5 13 Noroeste 27 Noroeste 4.4 892.2 0.4 73
2019-07-22 20:00:00 22.9 9 Este 32 Sur 0.8 891.4 -1 60
2019-07-22 19:00:00 29.7 11 Este 30 Este 0 891.7 -1.2 37
2019-07-22 18:00:00 33.7 12 Sudeste 23 Sur 0 891.8 -1.7 29
2019-07-22 17:00:00 32.5 8 Este 21 Sur 0 892.4 -1.6 37
2019-07-22 16:00:00 32.9 12 Sur 22 Sur 0 892.9 -1.4 31
2019-07-22 15:00:00 32 7 Sudeste 14 Sur 0 893.5 -1 35
2019-07-22 14:00:00 30.5 7 Sudeste 14 Sudeste 0 894 -0.7 40
2019-07-22 13:00:00 27.7 5 Este 11 Sudeste 0 894.3 -0.4 50
2019-07-22 12:00:00 24.8 4 Este 9 Este 0 894.5 -0.1 58
2019-07-22 11:00:00 21.8 4 Nordeste 18 Oeste 0 894.7 0.1 69
2019-07-22 10:00:00 19.6 12 Oeste 19 Oeste 0 894.7 0.2 75
2019-07-22 09:00:00 17.3 12 Oeste 19 Oeste 0 894.6 0.2 86
2019-07-22 08:00:00 14.7 9 Noroeste 19 Noroeste 0 894.6 0.2 94
2019-07-22 07:00:00 13.3 5 Noroeste 16 Oeste 0 894.5 -0.1 94
2019-07-22 06:00:00 13.4 6 Noroeste 10 Noroeste 0 894.4 -0.5 94
2019-07-22 05:00:00 13 3 Noroeste 12 Oeste 0 894.4 -0.8 94
2019-07-22 04:00:00 13.5 8 Noroeste 17 Noroeste 0 894.6 -0.7 93
2019-07-22 03:00:00 13.6 6 Noroeste 15 Noroeste 0 894.9 -0.5 93
2019-07-22 02:00:00 14.4 10 Noroeste 19 Noroeste 0 895.2 -0.2 93
2019-07-22 01:00:00 14.6 8 Noroeste 19 Noroeste 0 895.3 0.9 93
2019-07-22 00:00:00 15.1 13 Noroeste 21 Noroeste 0 895.4 1.6 91